BEE33C EGLC-EGCC
Flight info
| Callsign | BEE33C |
|---|---|
| Flight time | N/A |
| Altitude | 18000 |
| Route | BPK DCT WELIN T420 ELVOS |
| Aircraft | DH8D/M-SDE2E3FGRY/H |
Departure
| Time | 2026-04-28 08:52 |
|---|---|
| Airport | London City Airport (EGLC) |
Arrival
| Time | N/A |
|---|---|
| Airport | Manchester Airport (EGCC) |
| Time | Latitude | Longitude | Altitude | Speed | Heading |
|---|---|---|---|---|---|
| 2026-04-28 08:39 | 51.50442 | 0.04635 | 22 ft | 0 kts | 313° |
| 2026-04-28 08:50 | 51.50455 | 0.04613 | 22 ft | 5 kts | 314° |
| 2026-04-28 08:50 | 51.50476 | 0.04529 | 22 ft | 6 kts | 275° |
| 2026-04-28 08:51 | 51.50499 | 0.04450 | 22 ft | 10 kts | 331° |
| 2026-04-28 08:51 | 51.50540 | 0.04444 | 22 ft | 5 kts | 14° |
| 2026-04-28 08:51 | 51.50555 | 0.04500 | 22 ft | 0 kts | 90° |
| 2026-04-28 08:51 | 51.50555 | 0.04507 | 22 ft | 7 kts | 91° |
| 2026-04-28 08:52 | 51.50535 | 0.05149 | 23 ft | 102 kts | 91° |
| 2026-04-28 08:52 | 51.50474 | 0.06613 | 167 ft | 146 kts | 93° |
| 2026-04-28 08:52 | 51.50353 | 0.08326 | 704 ft | 159 kts | 91° |
| 2026-04-28 08:52 | 51.50286 | 0.09977 | 1626 ft | 146 kts | 83° |
| 2026-04-28 08:53 | 51.50686 | 0.11295 | 2295 ft | 143 kts | 35° |
| 2026-04-28 08:53 | 51.51747 | 0.11407 | 2745 ft | 172 kts | 349° |
| 2026-04-28 08:53 | 51.52900 | 0.10599 | 3139 ft | 201 kts | 343° |
| 2026-04-28 08:53 | 51.54288 | 0.09534 | 3078 ft | 236 kts | 339° |
| 2026-04-28 08:54 | 51.55774 | 0.08299 | 3065 ft | 245 kts | 338° |
| 2026-04-28 08:54 | 51.57291 | 0.06992 | 3057 ft | 245 kts | 338° |
| 2026-04-28 08:54 | 51.58798 | 0.05668 | 3057 ft | 246 kts | 336° |
| 2026-04-28 08:54 | 51.60245 | 0.04236 | 3060 ft | 247 kts | 334° |
| 2026-04-28 08:55 | 51.61714 | 0.02742 | 3062 ft | 248 kts | 334° |
| 2026-04-28 08:55 | 51.63121 | 0.01306 | 3495 ft | 229 kts | 334° |
| 2026-04-28 08:55 | 51.64418 | -0.00020 | 3780 ft | 221 kts | 335° |
| 2026-04-28 08:55 | 51.65718 | -0.01329 | 3941 ft | 219 kts | 335° |
| 2026-04-28 08:56 | 51.67022 | -0.02640 | 4079 ft | 219 kts | 335° |
| 2026-04-28 08:56 | 51.68302 | -0.03924 | 4203 ft | 218 kts | 335° |
| 2026-04-28 08:56 | 51.69582 | -0.05212 | 4394 ft | 212 kts | 335° |
| 2026-04-28 08:56 | 51.70795 | -0.06434 | 5180 ft | 203 kts | 335° |
| 2026-04-28 08:57 | 51.71950 | -0.07584 | 6086 ft | 196 kts | 335° |
| 2026-04-28 08:57 | 51.73114 | -0.08740 | 6828 ft | 198 kts | 336° |
| 2026-04-28 08:57 | 51.74277 | -0.09897 | 7554 ft | 199 kts | 335° |
| 2026-04-28 08:57 | 51.75431 | -0.11121 | 8262 ft | 202 kts | 331° |
| 2026-04-28 08:58 | 51.76553 | -0.12484 | 8956 ft | 205 kts | 330° |
| 2026-04-28 08:58 | 51.77689 | -0.13881 | 9652 ft | 207 kts | 330° |
| 2026-04-28 08:58 | 51.78819 | -0.15271 | 10350 ft | 208 kts | 330° |
| 2026-04-28 08:58 | 51.79978 | -0.16700 | 11036 ft | 210 kts | 330° |
| 2026-04-28 08:59 | 51.81126 | -0.18115 | 11707 ft | 213 kts | 330° |
| 2026-04-28 08:59 | 51.82303 | -0.19565 | 12367 ft | 216 kts | 330° |
| 2026-04-28 08:59 | 51.83508 | -0.21050 | 13043 ft | 218 kts | 330° |
| 2026-04-28 08:59 | 51.84701 | -0.22524 | 13681 ft | 221 kts | 330° |
| 2026-04-28 09:00 | 51.85929 | -0.24043 | 14346 ft | 222 kts | 331° |
| 2026-04-28 09:00 | 51.87140 | -0.25539 | 14942 ft | 224 kts | 332° |
| 2026-04-28 09:00 | 51.88382 | -0.27080 | 15576 ft | 225 kts | 333° |
| 2026-04-28 09:00 | 51.89630 | -0.28615 | 16147 ft | 227 kts | 333° |
| 2026-04-28 09:01 | 51.90888 | -0.30169 | 16722 ft | 230 kts | 334° |
| 2026-04-28 09:01 | 51.92153 | -0.31742 | 17319 ft | 232 kts | 333° |
| 2026-04-28 09:01 | 51.93427 | -0.33323 | 17889 ft | 235 kts | 334° |
| 2026-04-28 09:01 | 51.94308 | -0.34408 | 18106 ft | 246 kts | 334° |
| 2026-04-28 09:02 | 51.96248 | -0.36781 | 18296 ft | 277 kts | 333° |
| 2026-04-28 09:02 | 51.97845 | -0.38752 | 18339 ft | 299 kts | 332° |
| 2026-04-28 09:02 | 51.99555 | -0.40871 | 18317 ft | 319 kts | 332° |
| 2026-04-28 09:02 | 52.01341 | -0.43108 | 18354 ft | 334 kts | 330° |
| 2026-04-28 09:03 | 52.03239 | -0.45483 | 18347 ft | 347 kts | 330° |
| 2026-04-28 09:03 | 52.05167 | -0.47907 | 18302 ft | 355 kts | 330° |